createdAt,value
2023-04-18T00:00:11.926Z,216.63
2023-04-18T00:01:11.923Z,216.77
2023-04-18T00:02:12.008Z,216.63
2023-04-18T00:03:12.089Z,215.91
2023-04-18T00:04:12.063Z,215.49
2023-04-18T00:05:11.928Z,216.49
2023-04-18T00:06:11.854Z,214.78
2023-04-18T00:07:11.842Z,214.78
2023-04-18T00:08:11.837Z,214.22
2023-04-18T00:09:11.861Z,216.20
2023-04-18T00:10:11.804Z,213.80
2023-04-18T00:11:11.816Z,213.39
2023-04-18T00:12:11.786Z,213.66
2023-04-18T00:13:11.823Z,212.28
2023-04-18T00:14:12.177Z,212.01
2023-04-18T00:15:11.754Z,212.83
2023-04-18T00:16:11.749Z,211.60
2023-04-18T00:17:11.869Z,211.74
2023-04-18T00:18:11.715Z,211.05
2023-04-18T00:19:11.705Z,211.60
2023-04-18T00:20:11.695Z,211.19
2023-04-18T00:21:11.726Z,210.92
2023-04-18T00:22:11.700Z,210.51
2023-04-18T00:23:13.357Z,209.84
2023-04-18T00:24:11.694Z,212.28
2023-04-18T00:25:11.629Z,210.51
2023-04-18T00:26:11.656Z,210.11
2023-04-18T00:27:11.617Z,210.65
2023-04-18T00:28:11.640Z,209.30
2023-04-18T00:29:11.608Z,209.30
2023-04-18T00:30:11.596Z,208.64
2023-04-18T00:31:11.620Z,208.77
2023-04-18T00:32:11.568Z,207.98
2023-04-18T00:33:11.569Z,207.32
2023-04-18T00:34:11.712Z,207.45
2023-04-18T00:35:11.558Z,206.41
2023-04-18T00:36:11.529Z,206.93
2023-04-18T00:37:11.513Z,206.67
2023-04-18T00:38:11.551Z,208.11
2023-04-18T00:39:11.490Z,205.76
2023-04-18T00:40:11.470Z,206.02
2023-04-18T00:41:11.463Z,204.86
2023-04-18T00:42:11.461Z,205.50
2023-04-18T00:43:11.487Z,205.12
2023-04-18T00:44:11.583Z,204.60
2023-04-18T00:45:11.429Z,204.35
2023-04-18T00:46:11.512Z,204.48
2023-04-18T00:47:11.429Z,203.97
2023-04-18T00:48:11.431Z,202.33
2023-04-18T00:49:11.413Z,203.09
2023-04-18T00:50:11.400Z,203.21
2023-04-18T00:51:11.396Z,202.83
2023-04-18T00:52:11.379Z,201.59
2023-04-18T00:53:11.388Z,201.22
2023-04-18T00:54:11.548Z,201.22
2023-04-18T00:55:11.306Z,202.33
2023-04-18T00:56:11.324Z,201.71
2023-04-18T00:57:11.301Z,200.85
2023-04-18T00:58:11.292Z,199.50
2023-04-18T00:59:11.273Z,198.18
2023-04-18T01:00:11.268Z,199.14
2023-04-18T01:01:11.285Z,198.66
2023-04-18T01:02:11.281Z,200.36
2023-04-18T01:03:11.597Z,197.70
2023-04-18T01:04:11.334Z,196.05
2023-04-18T01:05:11.201Z,196.75
2023-04-18T01:06:11.217Z,196.05
2023-04-18T01:07:11.179Z,195.81
2023-04-18T01:08:11.179Z,195.35
2023-04-18T01:09:11.160Z,193.50
2023-04-18T01:10:11.190Z,194.19
2023-04-18T01:11:11.140Z,194.08
2023-04-18T01:12:11.122Z,193.28
2023-04-18T01:13:11.188Z,192.26
2023-04-18T01:14:11.291Z,192.03
2023-04-18T01:15:11.091Z,191.25
2023-04-18T01:16:11.112Z,190.80
2023-04-18T01:17:11.099Z,190.58
2023-04-18T01:18:11.073Z,190.58
2023-04-18T01:19:11.068Z,189.59
2023-04-18T01:20:11.058Z,189.59
2023-04-18T01:21:11.070Z,188.61
2023-04-18T01:22:11.024Z,188.39
2023-04-18T01:23:11.027Z,187.53
2023-04-18T01:24:11.189Z,186.78
2023-04-18T01:25:10.981Z,186.57
2023-04-18T01:26:11.000Z,185.83
2023-04-18T01:27:10.956Z,185.10
2023-04-18T01:28:10.957Z,184.79
2023-04-18T01:29:10.955Z,185.10
2023-04-18T01:30:10.959Z,186.04
2023-04-18T01:31:10.932Z,185.42
2023-04-18T01:32:10.910Z,185.62
2023-04-18T01:33:10.898Z,184.60
2023-04-18T01:34:10.959Z,184.19
2023-04-18T01:35:10.873Z,184.19
2023-04-18T01:36:10.857Z,183.78
2023-04-18T01:37:10.851Z,183.78
2023-04-18T01:38:10.861Z,182.38
2023-04-18T01:39:10.836Z,182.38
2023-04-18T01:40:10.850Z,181.78
2023-04-18T01:41:10.817Z,180.40
2023-04-18T01:42:10.805Z,181.19
2023-04-18T01:43:10.806Z,180.60
2023-04-18T01:44:10.813Z,181.78
2023-04-18T01:45:10.843Z,179.63
2023-04-18T01:46:10.791Z,179.43
2023-04-18T01:47:10.783Z,178.29
2023-04-18T01:48:10.739Z,179.05
2023-04-18T01:49:10.730Z,179.05
2023-04-18T01:50:10.793Z,178.09
2023-04-18T01:51:10.718Z,177.71
2023-04-18T01:52:10.685Z,176.96
2023-04-18T01:53:10.685Z,176.40
2023-04-18T01:54:10.689Z,176.96
2023-04-18T01:55:10.688Z,175.29
2023-04-18T01:56:10.660Z,174.37
2023-04-18T01:57:10.630Z,175.10
2023-04-18T01:58:10.628Z,175.10
2023-04-18T01:59:10.636Z,174.92
2023-04-18T02:00:10.626Z,173.65
2023-04-18T02:01:10.671Z,173.83
2023-04-18T02:02:10.694Z,173.65
2023-04-18T02:03:10.819Z,173.11
2023-04-18T02:04:10.668Z,171.15
2023-04-18T02:05:10.593Z,172.04
2023-04-18T02:06:10.529Z,171.86
2023-04-18T02:07:10.631Z,170.28
2023-04-18T02:08:10.558Z,171.51
2023-04-18T02:09:10.531Z,170.80
2023-04-18T02:10:10.507Z,170.45
2023-04-18T02:11:10.694Z,170.11
2023-04-18T02:12:10.533Z,169.76
2023-04-18T02:13:10.470Z,168.90
2023-04-18T02:14:10.466Z,170.45
2023-04-18T02:15:10.466Z,168.22
2023-04-18T02:16:10.474Z,168.05
2023-04-18T02:17:10.415Z,167.71
2023-04-18T02:18:10.429Z,168.05
2023-04-18T02:19:10.409Z,166.21
2023-04-18T02:20:10.379Z,166.54
2023-04-18T02:21:10.388Z,166.04
2023-04-18T02:22:10.368Z,165.88
2023-04-18T02:23:10.355Z,165.39
2023-04-18T02:24:10.389Z,165.55
2023-04-18T02:25:10.326Z,165.22
2023-04-18T02:26:10.354Z,164.90
2023-04-18T02:27:10.333Z,164.90
2023-04-18T02:28:10.291Z,164.90
2023-04-18T02:29:10.300Z,163.76
2023-04-18T02:30:10.316Z,163.60
2023-04-18T02:31:10.261Z,164.09
2023-04-18T02:32:10.309Z,162.96
2023-04-18T02:33:10.261Z,162.80
2023-04-18T02:34:10.242Z,162.49
2023-04-18T02:35:10.221Z,162.96
2023-04-18T02:36:10.217Z,162.01
2023-04-18T02:37:10.202Z,161.23
2023-04-18T02:38:10.189Z,160.76
2023-04-18T02:39:10.197Z,160.15
2023-04-18T02:40:10.210Z,159.84
2023-04-18T02:41:10.164Z,159.54
2023-04-18T02:42:10.158Z,160.61
2023-04-18T02:43:10.174Z,158.93
2023-04-18T02:44:10.136Z,159.08
2023-04-18T02:45:10.142Z,157.73
2023-04-18T02:46:10.245Z,157.73
2023-04-18T02:47:10.091Z,156.84
2023-04-18T02:48:10.124Z,156.98
2023-04-18T02:49:10.109Z,156.10
2023-04-18T02:50:10.078Z,156.25
2023-04-18T02:51:10.035Z,155.52
2023-04-18T02:52:10.059Z,155.96
2023-04-18T02:53:10.030Z,154.80
2023-04-18T02:54:10.021Z,154.80
2023-04-18T02:55:10.036Z,153.80
2023-04-18T02:56:10.010Z,154.80
2023-04-18T02:57:10.006Z,154.80
2023-04-18T02:58:09.991Z,152.82
2023-04-18T02:59:09.953Z,153.66
2023-04-18T03:00:09.956Z,153.38
2023-04-18T03:01:09.964Z,152.54
2023-04-18T03:02:09.988Z,152.26
2023-04-18T03:03:09.939Z,151.84
2023-04-18T03:04:09.907Z,151.43
2023-04-18T03:05:09.947Z,152.26
2023-04-18T03:06:09.894Z,152.12
2023-04-18T03:07:09.870Z,150.47
2023-04-18T03:08:09.887Z,149.93
2023-04-18T03:09:09.846Z,150.07
2023-04-18T03:10:09.834Z,149.53
2023-04-18T03:11:09.881Z,149.93
2023-04-18T03:12:09.816Z,148.33
2023-04-18T03:13:09.814Z,148.07
2023-04-18T03:14:09.812Z,148.33
2023-04-18T03:15:09.785Z,147.68
2023-04-18T03:16:09.837Z,146.90
2023-04-18T03:17:09.787Z,145.74
2023-04-18T03:18:09.742Z,146.25
2023-04-18T03:19:09.739Z,144.98
2023-04-18T03:20:09.767Z,145.49
2023-04-18T03:21:09.725Z,144.86
2023-04-18T03:22:09.715Z,144.48
2023-04-18T03:23:09.740Z,144.60
2023-04-18T03:24:11.959Z,143.86
2023-04-18T03:25:09.679Z,143.61
2023-04-18T03:26:09.808Z,142.26
2023-04-18T03:27:09.690Z,142.51
2023-04-18T03:28:09.642Z,141.54
2023-04-18T03:29:09.671Z,141.54
2023-04-18T03:30:09.616Z,142.26
2023-04-18T03:31:09.664Z,141.54
2023-04-18T03:32:09.619Z,140.11
2023-04-18T03:33:09.608Z,141.06
2023-04-18T03:34:09.579Z,140.11
2023-04-18T03:35:09.609Z,140.94
2023-04-18T03:36:09.557Z,140.94
2023-04-18T03:37:09.571Z,141.06
2023-04-18T03:38:09.524Z,140.47
2023-04-18T03:39:09.526Z,140.47
2023-04-18T03:40:09.510Z,140.59
2023-04-18T03:41:09.507Z,139.76
2023-04-18T03:42:09.671Z,139.99
2023-04-18T03:43:09.492Z,141.54
2023-04-18T03:44:09.462Z,139.29
2023-04-18T03:45:09.490Z,139.41
2023-04-18T03:46:09.458Z,138.95
2023-04-18T03:47:09.443Z,138.26
2023-04-18T03:48:09.448Z,138.49
2023-04-18T03:49:09.409Z,139.18
2023-04-18T03:50:09.392Z,139.18
2023-04-18T03:51:09.409Z,139.76
2023-04-18T03:52:09.391Z,139.41
2023-04-18T03:53:09.377Z,139.18
2023-04-18T03:54:09.365Z,139.18
2023-04-18T03:55:09.344Z,139.06
2023-04-18T03:56:09.330Z,137.80
2023-04-18T03:57:09.376Z,137.57
2023-04-18T03:58:09.317Z,138.26
2023-04-18T03:59:09.309Z,136.67
2023-04-18T04:00:09.338Z,137.68
2023-04-18T04:01:09.277Z,136.22
2023-04-18T04:02:09.282Z,135.78
2023-04-18T04:03:09.402Z,137.01
2023-04-18T04:04:09.535Z,135.45
2023-04-18T04:05:09.382Z,134.79
2023-04-18T04:06:09.225Z,136.22
2023-04-18T04:07:09.232Z,135.01
2023-04-18T04:08:09.202Z,134.90
2023-04-18T04:09:09.214Z,134.90
2023-04-18T04:10:09.199Z,133.82
2023-04-18T04:11:09.224Z,134.47
2023-04-18T04:12:09.172Z,134.58
2023-04-18T04:13:09.156Z,134.25
2023-04-18T04:14:09.154Z,133.39
2023-04-18T04:15:09.139Z,133.71
2023-04-18T04:16:09.243Z,133.93
2023-04-18T04:17:09.121Z,133.82
2023-04-18T04:18:09.164Z,133.29
2023-04-18T04:19:09.081Z,132.97
2023-04-18T04:20:09.284Z,132.54
2023-04-18T04:21:09.070Z,132.34
2023-04-18T04:22:09.343Z,131.92
2023-04-18T04:23:09.069Z,131.81
2023-04-18T04:24:09.045Z,131.19
2023-04-18T04:25:09.064Z,131.19
2023-04-18T04:26:09.007Z,130.78
2023-04-18T04:27:09.006Z,130.57
2023-04-18T04:28:09.006Z,131.19
2023-04-18T04:29:08.998Z,130.57
2023-04-18T04:30:09.558Z,130.68
2023-04-18T04:31:08.983Z,130.37
2023-04-18T04:32:09.032Z,130.37
2023-04-18T04:33:08.959Z,130.47
2023-04-18T04:34:09.000Z,131.29
2023-04-18T04:35:08.908Z,130.17
2023-04-18T04:36:08.916Z,129.66
2023-04-18T04:37:08.930Z,130.47
2023-04-18T04:38:08.879Z,129.66
2023-04-18T04:39:08.863Z,129.76
2023-04-18T04:40:08.905Z,130.57
2023-04-18T04:41:08.838Z,130.27
2023-04-18T04:42:08.826Z,130.88
2023-04-18T04:43:08.867Z,130.37
2023-04-18T04:44:08.808Z,130.88
2023-04-18T04:45:08.809Z,131.29
2023-04-18T04:46:08.848Z,131.09
2023-04-18T04:47:08.777Z,130.99
2023-04-18T04:48:08.768Z,130.68
2023-04-18T04:49:08.781Z,130.88
2023-04-18T04:50:08.801Z,131.50
2023-04-18T04:51:08.731Z,130.57
2023-04-18T04:52:08.730Z,131.81
2023-04-18T04:53:08.774Z,131.60
2023-04-18T04:54:08.690Z,130.57
2023-04-18T04:55:08.702Z,130.99
2023-04-18T04:56:08.713Z,131.60
2023-04-18T04:57:08.662Z,131.71
2023-04-18T04:58:08.654Z,131.50
2023-04-18T04:59:08.699Z,131.81
2023-04-18T05:00:08.651Z,131.60
2023-04-18T05:01:08.660Z,132.23
2023-04-18T05:02:08.722Z,132.23
2023-04-18T05:03:08.881Z,133.18
2023-04-18T05:04:08.666Z,133.50
2023-04-18T05:05:08.602Z,133.39
2023-04-18T05:06:08.599Z,134.25
2023-04-18T05:07:08.561Z,135.12
2023-04-18T05:08:08.581Z,134.04
2023-04-18T05:09:08.525Z,134.68
2023-04-18T05:10:08.535Z,134.47
2023-04-18T05:11:08.548Z,134.58
2023-04-18T05:12:08.523Z,135.23
2023-04-18T05:13:08.497Z,135.12
2023-04-18T05:14:08.502Z,135.78
2023-04-18T05:15:08.475Z,136.67
2023-04-18T05:16:08.491Z,136.11
2023-04-18T05:17:08.598Z,136.45
2023-04-18T05:18:08.506Z,136.78
2023-04-18T05:19:08.424Z,136.90
2023-04-18T05:20:08.428Z,136.67
2023-04-18T05:21:08.408Z,137.01
2023-04-18T05:22:08.421Z,136.34
2023-04-18T05:23:08.411Z,136.90
2023-04-18T05:24:08.369Z,137.46
2023-04-18T05:25:08.380Z,137.12
2023-04-18T05:26:08.426Z,138.03
2023-04-18T05:27:08.383Z,138.95
2023-04-18T05:28:08.340Z,138.03
2023-04-18T05:29:08.309Z,139.76
2023-04-18T05:30:08.306Z,138.95
2023-04-18T05:31:08.327Z,139.06
2023-04-18T05:32:08.280Z,138.95
2023-04-18T05:33:08.406Z,140.23
2023-04-18T05:34:08.261Z,140.70
2023-04-18T05:35:08.251Z,140.35
2023-04-18T05:36:08.317Z,141.30
2023-04-18T05:37:08.235Z,141.30
2023-04-18T05:38:08.217Z,142.51
2023-04-18T05:39:08.270Z,142.87
2023-04-18T05:40:08.187Z,143.24
2023-04-18T05:41:08.198Z,143.73
2023-04-18T05:42:08.222Z,143.49
2023-04-18T05:43:08.198Z,143.98
2023-04-18T05:44:08.153Z,144.60
2023-04-18T05:45:08.160Z,144.35
2023-04-18T05:46:08.173Z,144.23
2023-04-18T05:47:08.114Z,145.11
2023-04-18T05:48:08.279Z,145.74
2023-04-18T05:49:08.094Z,144.98
2023-04-18T05:50:08.090Z,146.25
2023-04-18T05:51:09.458Z,145.74
2023-04-18T05:52:08.068Z,146.51
2023-04-18T05:53:08.068Z,146.00
2023-04-18T05:54:08.072Z,147.03
2023-04-18T05:55:08.044Z,147.03
2023-04-18T05:56:08.038Z,147.29
2023-04-18T05:57:08.046Z,148.20
2023-04-18T05:58:07.992Z,148.07
2023-04-18T05:59:08.003Z,148.33
2023-04-18T06:00:08.003Z,148.73
2023-04-18T06:01:07.995Z,148.46
2023-04-18T06:02:08.005Z,149.53
2023-04-18T06:03:10.696Z,149.53
2023-04-18T06:04:08.100Z,151.02
2023-04-18T06:05:08.221Z,150.61
2023-04-18T06:06:07.949Z,150.47
2023-04-18T06:07:07.904Z,151.15
2023-04-18T06:08:07.902Z,152.12
2023-04-18T06:09:07.897Z,151.29
2023-04-18T06:10:07.869Z,152.26
2023-04-18T06:11:07.867Z,152.96
2023-04-18T06:12:07.947Z,152.26
2023-04-18T06:13:07.880Z,152.96
2023-04-18T06:14:07.905Z,152.54
2023-04-18T06:15:07.809Z,153.24
2023-04-18T06:16:07.873Z,152.96
2023-04-18T06:17:07.800Z,153.52
2023-04-18T06:18:07.855Z,153.80
2023-04-18T06:19:07.831Z,154.80
2023-04-18T06:20:07.786Z,154.09
2023-04-18T06:21:07.789Z,154.09
2023-04-18T06:22:07.754Z,154.94
2023-04-18T06:23:07.732Z,154.09
2023-04-18T06:24:07.742Z,155.09
2023-04-18T06:25:07.730Z,156.40
2023-04-18T06:26:07.767Z,156.25
2023-04-18T06:27:14.933Z,156.40
2023-04-18T06:28:08.698Z,156.10
2023-04-18T06:29:07.660Z,157.13
2023-04-18T06:30:07.652Z,157.13
2023-04-18T06:31:07.700Z,156.54
2023-04-18T06:32:07.650Z,158.02
2023-04-18T06:33:07.676Z,158.18
2023-04-18T06:34:07.652Z,158.93
2023-04-18T06:35:07.601Z,158.78
2023-04-18T06:36:07.620Z,158.02
2023-04-18T06:37:07.594Z,158.63
2023-04-18T06:38:07.587Z,159.08
2023-04-18T06:39:07.552Z,160.30
2023-04-18T06:40:07.591Z,160.76
2023-04-18T06:41:07.527Z,158.93
2023-04-18T06:42:07.510Z,158.63
2023-04-18T06:43:07.598Z,156.69
2023-04-18T06:44:07.506Z,156.98
2023-04-18T06:45:07.505Z,157.73
2023-04-18T06:46:07.522Z,157.73
2023-04-18T06:47:07.457Z,157.28
2023-04-18T06:48:07.510Z,156.40
2023-04-18T06:49:07.489Z,157.13
2023-04-18T06:50:07.425Z,156.40
2023-04-18T06:51:07.413Z,156.54
2023-04-18T06:52:07.438Z,156.98
2023-04-18T06:53:07.409Z,157.13
2023-04-18T06:54:07.397Z,158.18
2023-04-18T06:55:07.408Z,157.88
2023-04-18T06:56:07.357Z,158.32
2023-04-18T06:57:07.351Z,156.69
2023-04-18T06:58:07.333Z,157.13
2023-04-18T06:59:07.354Z,158.02
2023-04-18T07:00:07.330Z,157.43
2023-04-18T07:01:07.362Z,157.28
2023-04-18T07:02:07.365Z,158.02
2023-04-18T07:03:09.420Z,158.78
2023-04-18T07:04:07.376Z,159.38
2023-04-18T07:05:07.302Z,159.69
2023-04-18T07:06:07.254Z,159.54
2023-04-18T07:07:07.242Z,160.61
2023-04-18T07:08:07.271Z,160.15
2023-04-18T07:09:07.227Z,160.92
2023-04-18T07:10:07.207Z,161.08
2023-04-18T07:11:07.234Z,161.54
2023-04-18T07:12:07.188Z,161.54
2023-04-18T07:13:07.179Z,161.70
2023-04-18T07:14:07.187Z,162.01
2023-04-18T07:15:07.165Z,162.33
2023-04-18T07:16:07.138Z,162.49
2023-04-18T07:17:07.297Z,162.65
2023-04-18T07:18:07.156Z,163.92
2023-04-18T07:19:07.107Z,162.49
2023-04-18T07:20:07.151Z,163.44
2023-04-18T07:21:07.113Z,163.76
2023-04-18T07:22:07.077Z,162.65
2023-04-18T07:23:07.074Z,162.33
2023-04-18T07:24:07.060Z,164.09
2023-04-18T07:25:07.055Z,162.01
2023-04-18T07:26:07.045Z,162.01
2023-04-18T07:27:07.066Z,161.39
2023-04-18T07:28:07.003Z,159.54
2023-04-18T07:29:07.008Z,160.61
2023-04-18T07:30:07.084Z,158.02
2023-04-18T07:31:06.989Z,157.88
2023-04-18T07:32:08.396Z,156.98
2023-04-18T07:33:07.010Z,156.98
2023-04-18T07:34:06.961Z,158.02
2023-04-18T07:35:06.935Z,156.98
2023-04-18T07:36:06.975Z,158.48
2023-04-18T07:37:06.928Z,157.73
2023-04-18T07:38:06.900Z,157.28
2023-04-18T07:39:06.937Z,157.43
2023-04-18T07:40:06.895Z,157.28
2023-04-18T07:41:06.895Z,156.98
2023-04-18T07:42:06.900Z,156.10
2023-04-18T07:43:06.845Z,156.40
2023-04-18T07:44:06.841Z,157.28
2023-04-18T07:45:06.862Z,155.52
2023-04-18T07:46:06.834Z,155.81
2023-04-18T07:49:30.491Z,206.02
2023-04-18T07:50:30.480Z,189.81
2023-04-18T07:53:54.819Z,218.94
2023-04-18T07:54:54.805Z,198.66
2023-04-18T07:55:54.862Z,188.83
2023-04-18T07:56:54.813Z,181.19
2023-04-18T07:57:54.799Z,177.34
2023-04-18T07:58:54.809Z,173.65
2023-04-18T07:59:54.755Z,168.05
2023-04-18T08:00:54.744Z,166.88
2023-04-18T08:01:54.795Z,163.60
2023-04-18T08:02:54.891Z,162.96
2023-04-18T08:03:54.942Z,158.93
2023-04-18T08:04:54.998Z,158.18
2023-04-18T08:05:54.698Z,156.54
2023-04-18T08:06:55.635Z,154.80
2023-04-18T08:07:54.685Z,154.51
2023-04-18T08:08:54.662Z,153.52
2023-04-18T08:09:54.689Z,151.84
2023-04-18T08:10:54.636Z,150.61
2023-04-18T08:11:54.620Z,149.93
2023-04-18T08:12:54.634Z,149.66
2023-04-18T08:13:54.607Z,150.74
2023-04-18T08:14:54.723Z,148.73
2023-04-18T08:15:54.631Z,148.60
2023-04-18T08:16:54.569Z,148.99
2023-04-18T08:17:54.669Z,145.87
2023-04-18T08:18:54.548Z,146.77
2023-04-18T08:19:54.534Z,146.51
2023-04-18T08:20:54.534Z,145.87
2023-04-18T08:21:54.555Z,147.16
2023-04-18T08:23:05.164Z,147.16
2023-04-18T08:23:55.510Z,146.64
2023-04-18T08:25:04.325Z,148.46
2023-04-18T08:25:55.472Z,148.20
2023-04-18T08:26:54.464Z,149.26
2023-04-18T08:27:54.475Z,149.26
2023-04-18T08:28:54.447Z,148.99
2023-04-18T08:29:54.485Z,148.46
2023-04-18T08:30:54.416Z,149.53
2023-04-18T08:31:54.439Z,149.66
2023-04-18T08:32:54.444Z,151.29
2023-04-18T08:33:54.413Z,153.10
2023-04-18T08:34:54.382Z,154.80
2023-04-18T08:35:54.372Z,154.51
2023-04-18T08:36:54.354Z,155.96
2023-04-18T08:37:54.394Z,156.25
2023-04-18T08:38:54.333Z,156.69
2023-04-18T08:39:54.319Z,157.43
2023-04-18T08:40:54.306Z,159.08
2023-04-18T08:41:54.431Z,158.78
2023-04-18T08:42:54.364Z,159.69
2023-04-18T08:43:55.231Z,159.99
2023-04-18T08:44:54.266Z,161.39
2023-04-18T08:45:54.288Z,161.08
2023-04-18T08:46:54.309Z,160.76
2023-04-18T08:47:54.303Z,161.39
2023-04-18T08:49:49.698Z,195.35
2023-04-18T08:50:49.681Z,185.10
2023-04-18T08:51:49.665Z,181.98
2023-04-18T08:52:49.655Z,178.86
2023-04-18T08:53:49.690Z,177.53
2023-04-18T08:54:49.651Z,176.59
2023-04-18T08:55:49.663Z,176.96
2023-04-18T08:56:49.630Z,176.03
2023-04-18T08:57:49.611Z,175.84
2023-04-18T08:58:49.625Z,176.77
2023-04-18T08:59:50.954Z,174.74
2023-04-18T09:00:49.578Z,174.92
2023-04-18T09:01:49.575Z,175.47
2023-04-18T09:02:49.638Z,175.47
2023-04-18T09:03:49.570Z,174.74
2023-04-18T09:04:49.543Z,174.37
2023-04-18T09:05:49.532Z,173.65
2023-04-18T09:06:49.537Z,173.65
2023-04-18T09:07:49.554Z,173.83
2023-04-18T09:08:49.501Z,173.83
2023-04-18T09:09:49.489Z,174.37
2023-04-18T09:10:49.481Z,174.74
2023-04-18T09:11:49.454Z,176.21
2023-04-18T09:12:49.449Z,177.90
2023-04-18T09:13:49.452Z,178.09
2023-04-18T09:14:49.463Z,180.02
2023-04-18T09:15:49.420Z,181.78
2023-04-18T09:16:49.430Z,182.78
2023-04-18T09:17:49.495Z,181.58
2023-04-18T09:18:49.395Z,182.18
2023-04-18T09:19:49.375Z,183.58
2023-04-18T09:20:49.358Z,183.18
2023-04-18T09:21:49.347Z,183.58
2023-04-18T09:22:49.354Z,184.60
2023-04-18T09:23:49.345Z,183.78
2023-04-18T09:24:49.332Z,184.19
2023-04-18T09:25:49.324Z,185.42
2023-04-18T09:26:49.295Z,186.87
2023-04-18T09:27:49.314Z,186.45
2023-04-18T09:28:49.277Z,186.24
2023-04-18T09:29:49.285Z,186.45
2023-04-18T09:30:49.290Z,186.04
2023-04-18T09:31:49.244Z,185.41
2023-04-18T09:32:49.258Z,186.04
2023-04-18T09:33:49.240Z,186.36
2023-04-18T09:34:49.209Z,186.78
2023-04-18T09:35:49.202Z,185.41
2023-04-18T09:36:49.240Z,186.57
2023-04-18T09:37:49.192Z,187.32
2023-04-18T09:38:49.198Z,187.32
2023-04-18T09:39:49.186Z,187.10
2023-04-18T09:40:49.150Z,186.04
2023-04-18T09:41:49.131Z,185.62
2023-04-18T09:42:49.152Z,184.79
2023-04-18T09:43:49.136Z,186.45
2023-04-18T09:44:49.116Z,185.20
2023-04-18T09:45:49.153Z,187.75
2023-04-18T09:46:49.129Z,187.43
2023-04-18T09:47:49.125Z,190.69
2023-04-18T09:48:49.063Z,188.83
2023-04-18T09:49:49.069Z,190.36
2023-04-18T09:50:49.044Z,189.92
2023-04-18T09:51:49.026Z,190.03
2023-04-18T09:52:49.021Z,189.92
2023-04-18T09:53:49.022Z,189.26
2023-04-18T09:54:49.005Z,191.02
2023-04-18T09:55:48.982Z,191.58
2023-04-18T09:56:48.977Z,192.82
2023-04-18T09:57:48.977Z,193.62
2023-04-18T09:58:48.961Z,193.50
2023-04-18T09:59:48.939Z,194.19
2023-04-18T10:00:48.929Z,194.42
2023-04-18T10:01:48.939Z,194.88
2023-04-18T10:02:49.014Z,194.77
2023-04-18T10:03:48.986Z,195.58
2023-04-18T10:04:48.998Z,196.75
2023-04-18T10:05:49.045Z,194.65
2023-04-18T10:06:48.875Z,194.54
2023-04-18T10:07:48.848Z,195.00
2023-04-18T10:08:48.917Z,195.23
2023-04-18T10:09:48.835Z,194.77
2023-04-18T10:10:48.828Z,195.93
2023-04-18T10:11:48.809Z,195.35
2023-04-18T10:12:48.811Z,195.93
2023-04-18T10:13:48.815Z,197.82
2023-04-18T10:14:48.782Z,198.06
2023-04-18T10:15:50.295Z,198.30
2023-04-18T10:16:50.496Z,200.85
2023-04-18T10:18:02.818Z,201.46
2023-04-18T10:18:49.733Z,202.71
2023-04-18T10:19:48.747Z,205.37
2023-04-18T10:20:48.728Z,205.89
2023-04-18T10:21:48.701Z,205.37
2023-04-18T10:22:48.720Z,204.48
2023-04-18T10:23:48.709Z,206.28
2023-04-18T10:24:48.689Z,207.71
2023-04-18T10:25:48.673Z,206.15
2023-04-18T10:26:48.645Z,207.19
2023-04-18T10:27:48.751Z,206.41
2023-04-18T10:28:48.685Z,206.67
2023-04-18T10:29:48.658Z,205.89
2023-04-18T10:30:48.613Z,208.37
2023-04-18T10:31:48.693Z,208.51
2023-04-18T10:32:48.613Z,207.32
2023-04-18T10:34:00.623Z,208.51
2023-04-18T10:34:49.595Z,207.19
2023-04-18T10:35:48.551Z,206.28
2023-04-18T10:36:48.545Z,206.93
2023-04-18T10:37:48.532Z,209.30
2023-04-18T10:38:48.557Z,208.77
2023-04-18T10:39:48.506Z,210.38
2023-04-18T10:40:48.498Z,210.38
2023-04-18T10:41:49.463Z,210.65
2023-04-18T10:42:48.535Z,212.01
2023-04-18T10:43:48.486Z,211.05
2023-04-18T10:44:48.459Z,212.15
2023-04-18T10:45:48.441Z,211.74
2023-04-18T10:46:48.469Z,211.05
2023-04-18T10:47:48.512Z,212.83
2023-04-18T10:48:48.431Z,212.70
2023-04-18T10:49:48.409Z,212.28
2023-04-18T10:50:48.524Z,212.83
2023-04-18T10:51:48.422Z,212.70
2023-04-18T10:52:48.374Z,213.39
2023-04-18T10:53:48.390Z,215.35
2023-04-18T10:54:48.349Z,213.39
2023-04-18T10:55:48.343Z,214.78
2023-04-18T10:56:48.365Z,214.50
2023-04-18T10:57:48.320Z,216.49
2023-04-18T10:58:48.327Z,217.49
2023-04-18T10:59:48.305Z,215.77
2023-04-18T11:00:48.299Z,217.06
2023-04-18T11:01:48.338Z,217.35
2023-04-18T11:02:48.465Z,216.77
2023-04-18T11:03:48.337Z,216.77
2023-04-18T11:04:48.267Z,216.77
2023-04-18T11:05:48.226Z,214.36
2023-04-18T11:06:48.224Z,214.08
2023-04-18T11:07:48.223Z,215.07
2023-04-18T11:08:48.236Z,212.70
2023-04-18T11:09:48.207Z,212.42
2023-04-18T11:10:48.181Z,211.33
2023-04-18T11:11:48.163Z,212.01
2023-04-18T11:12:48.160Z,209.84
2023-04-18T11:13:48.185Z,210.65
2023-04-18T11:14:48.139Z,209.84
2023-04-18T11:15:48.122Z,211.46
2023-04-18T11:16:48.134Z,210.38
2023-04-18T11:17:48.183Z,209.57
2023-04-18T11:18:48.113Z,210.65
2023-04-18T11:19:48.283Z,210.92
2023-04-18T11:20:48.065Z,211.74
2023-04-18T11:21:48.065Z,210.65
2023-04-18T11:22:48.087Z,212.42
2023-04-18T11:23:48.051Z,212.83
2023-04-18T11:24:48.064Z,212.97
2023-04-18T11:25:48.037Z,211.19
2023-04-18T11:26:48.012Z,211.74
2023-04-18T11:27:47.998Z,210.51
2023-04-18T11:28:47.983Z,210.92
2023-04-18T11:29:47.982Z,209.30
2023-04-18T11:30:47.989Z,208.90
2023-04-18T11:31:47.980Z,209.57
2023-04-18T11:32:47.963Z,211.33
2023-04-18T11:33:47.926Z,211.19
2023-04-18T11:34:47.921Z,209.84
2023-04-18T11:35:47.935Z,211.60
2023-04-18T11:36:47.898Z,212.28
2023-04-18T11:37:47.888Z,212.01
2023-04-18T11:38:47.877Z,210.92
2023-04-18T11:39:47.878Z,210.92
2023-04-18T11:40:47.925Z,209.17
2023-04-18T11:41:47.859Z,208.37
2023-04-18T11:42:47.843Z,207.58
2023-04-18T11:43:47.821Z,207.71
2023-04-18T11:44:47.862Z,207.06
2023-04-18T11:45:47.861Z,205.89
2023-04-18T11:46:47.808Z,206.41
2023-04-18T11:47:47.969Z,206.67
2023-04-18T11:48:47.766Z,203.97
2023-04-18T11:49:47.786Z,204.86
2023-04-18T11:50:47.751Z,203.59
2023-04-18T11:51:47.740Z,202.58
2023-04-18T11:52:47.752Z,201.71
2023-04-18T11:53:47.726Z,201.84
2023-04-18T11:54:47.708Z,201.71
2023-04-18T11:55:47.716Z,199.63
2023-04-18T11:56:47.679Z,198.90
2023-04-18T11:57:47.694Z,200.73
2023-04-18T11:58:47.666Z,197.94
2023-04-18T11:59:47.652Z,199.63
2023-04-18T12:00:47.651Z,199.26
2023-04-18T12:01:47.885Z,198.42
2023-04-18T12:02:47.727Z,198.06
2023-04-18T12:03:47.789Z,199.26
2023-04-18T12:04:47.787Z,198.54
2023-04-18T12:05:47.675Z,196.28
2023-04-18T12:06:47.611Z,198.06
2023-04-18T12:07:47.577Z,197.58
2023-04-18T12:08:47.581Z,195.70
2023-04-18T12:09:47.545Z,197.46
2023-04-18T12:10:47.556Z,197.58
2023-04-18T12:11:47.553Z,197.23
2023-04-18T12:12:47.517Z,197.94
2023-04-18T12:13:47.504Z,196.63
2023-04-18T12:14:47.487Z,196.99
2023-04-18T12:15:47.532Z,196.40
2023-04-18T12:16:47.485Z,196.99
2023-04-18T12:17:47.512Z,196.99
2023-04-18T12:18:47.439Z,196.28
2023-04-18T12:19:49.694Z,196.16
2023-04-18T12:20:47.455Z,196.63
2023-04-18T12:21:47.433Z,197.46
2023-04-18T12:22:47.422Z,197.35
2023-04-18T12:23:47.413Z,197.11
2023-04-18T12:24:47.382Z,195.93
2023-04-18T12:25:47.378Z,196.05
2023-04-18T12:26:47.360Z,195.58
2023-04-18T12:27:47.399Z,195.58
2023-04-18T12:28:47.334Z,193.62
2023-04-18T12:29:47.344Z,193.85
2023-04-18T12:30:47.342Z,193.96
2023-04-18T12:31:47.377Z,196.05
2023-04-18T12:32:47.388Z,194.88
2023-04-18T12:33:47.280Z,196.28